sensor_id;sensor_type;location;lat;lon;timestamp;P1;durP1;ratioP1;P2;durP2;ratioP2
5058;SDS011;2548;52.050;11.036;2022-11-02T00:02:25;3.55;;;1.73;;
5058;SDS011;2548;52.050;11.036;2022-11-02T00:04:52;5.07;;;1.90;;
5058;SDS011;2548;52.050;11.036;2022-11-02T00:07:19;6.93;;;2.00;;
5058;SDS011;2548;52.050;11.036;2022-11-02T00:09:47;17.13;;;2.10;;
5058;SDS011;2548;52.050;11.036;2022-11-02T00:12:14;6.18;;;1.45;;
5058;SDS011;2548;52.050;11.036;2022-11-02T00:14:41;6.82;;;1.95;;
5058;SDS011;2548;52.050;11.036;2022-11-02T00:17:10;3.35;;;1.73;;
5058;SDS011;2548;52.050;11.036;2022-11-02T00:19:37;7.32;;;2.30;;
5058;SDS011;2548;52.050;11.036;2022-11-02T00:22:05;10.27;;;2.95;;
5058;SDS011;2548;52.050;11.036;2022-11-02T00:24:32;6.40;;;2.65;;
5058;SDS011;2548;52.050;11.036;2022-11-02T00:26:59;12.70;;;2.05;;
5058;SDS011;2548;52.050;11.036;2022-11-02T00:29:27;4.85;;;1.55;;
5058;SDS011;2548;52.050;11.036;2022-11-02T00:31:55;9.52;;;1.70;;
5058;SDS011;2548;52.050;11.036;2022-11-02T00:34:23;11.38;;;2.05;;
5058;SDS011;2548;52.050;11.036;2022-11-02T00:36:51;7.05;;;1.73;;
5058;SDS011;2548;52.050;11.036;2022-11-02T00:39:20;4.15;;;1.90;;
5058;SDS011;2548;52.050;11.036;2022-11-02T00:41:47;9.90;;;2.15;;
5058;SDS011;2548;52.050;11.036;2022-11-02T00:44:14;6.28;;;2.20;;
5058;SDS011;2548;52.050;11.036;2022-11-02T00:46:42;4.40;;;1.63;;
5058;SDS011;2548;52.050;11.036;2022-11-02T00:49:09;9.63;;;2.15;;
5058;SDS011;2548;52.050;11.036;2022-11-02T00:51:38;6.57;;;1.90;;
5058;SDS011;2548;52.050;11.036;2022-11-02T00:54:07;9.02;;;3.15;;
5058;SDS011;2548;52.050;11.036;2022-11-02T00:56:35;13.95;;;2.05;;
5058;SDS011;2548;52.050;11.036;2022-11-02T00:59:04;9.27;;;1.95;;
5058;SDS011;2548;52.050;11.036;2022-11-02T01:01:31;6.60;;;1.80;;
5058;SDS011;2548;52.050;11.036;2022-11-02T01:03:58;5.43;;;1.90;;
5058;SDS011;2548;52.050;11.036;2022-11-02T01:06:26;7.63;;;1.73;;
5058;SDS011;2548;52.050;11.036;2022-11-02T01:08:54;7.97;;;2.40;;
5058;SDS011;2548;52.050;11.036;2022-11-02T01:11:22;5.45;;;1.98;;
5058;SDS011;2548;52.050;11.036;2022-11-02T01:13:50;5.10;;;1.77;;
5058;SDS011;2548;52.050;11.036;2022-11-02T01:16:18;4.90;;;1.92;;
5058;SDS011;2548;52.050;11.036;2022-11-02T01:18:46;11.88;;;2.25;;
5058;SDS011;2548;52.050;11.036;2022-11-02T01:21:17;7.85;;;1.77;;
5058;SDS011;2548;52.050;11.036;2022-11-02T01:23:45;5.28;;;1.50;;
5058;SDS011;2548;52.050;11.036;2022-11-02T01:26:14;14.57;;;2.63;;
5058;SDS011;2548;52.050;11.036;2022-11-02T01:28:41;3.55;;;1.55;;
5058;SDS011;2548;52.050;11.036;2022-11-02T01:31:09;13.38;;;1.85;;
5058;SDS011;2548;52.050;11.036;2022-11-02T01:33:37;9.10;;;1.42;;
5058;SDS011;2548;52.050;11.036;2022-11-02T01:36:08;8.43;;;2.25;;
5058;SDS011;2548;52.050;11.036;2022-11-02T01:38:36;8.93;;;2.20;;
5058;SDS011;2548;52.050;11.036;2022-11-02T01:41:03;11.40;;;2.35;;
5058;SDS011;2548;52.050;11.036;2022-11-02T01:43:33;6.63;;;1.65;;
5058;SDS011;2548;52.050;11.036;2022-11-02T01:46:04;9.32;;;3.00;;
5058;SDS011;2548;52.050;11.036;2022-11-02T01:48:39;9.98;;;2.80;;
5058;SDS011;2548;52.050;11.036;2022-11-02T01:51:09;4.55;;;2.30;;
5058;SDS011;2548;52.050;11.036;2022-11-02T01:53:40;15.20;;;5.28;;
5058;SDS011;2548;52.050;11.036;2022-11-02T01:56:10;22.02;;;8.80;;
5058;SDS011;2548;52.050;11.036;2022-11-02T01:58:43;16.67;;;6.55;;
5058;SDS011;2548;52.050;11.036;2022-11-02T02:01:14;14.10;;;4.80;;
5058;SDS011;2548;52.050;11.036;2022-11-02T02:03:42;13.10;;;3.75;;
5058;SDS011;2548;52.050;11.036;2022-11-02T02:06:10;13.90;;;4.05;;
5058;SDS011;2548;52.050;11.036;2022-11-02T02:08:42;16.58;;;5.28;;
5058;SDS011;2548;52.050;11.036;2022-11-02T02:11:23;9.48;;;3.67;;
5058;SDS011;2548;52.050;11.036;2022-11-02T02:13:54;9.90;;;4.70;;
5058;SDS011;2548;52.050;11.036;2022-11-02T02:16:27;6.63;;;2.90;;
5058;SDS011;2548;52.050;11.036;2022-11-02T02:19:11;9.70;;;2.67;;
5058;SDS011;2548;52.050;11.036;2022-11-02T02:22:00;5.45;;;1.90;;
5058;SDS011;2548;52.050;11.036;2022-11-02T02:24:43;3.97;;;2.03;;
5058;SDS011;2548;52.050;11.036;2022-11-02T02:27:17;8.68;;;2.55;;
5058;SDS011;2548;52.050;11.036;2022-11-02T02:29:52;7.32;;;1.88;;
5058;SDS011;2548;52.050;11.036;2022-11-02T02:32:30;9.07;;;2.13;;
5058;SDS011;2548;52.050;11.036;2022-11-02T02:35:09;3.72;;;2.15;;
5058;SDS011;2548;52.050;11.036;2022-11-02T02:37:42;12.27;;;3.38;;
5058;SDS011;2548;52.050;11.036;2022-11-02T02:40:17;7.60;;;2.33;;
5058;SDS011;2548;52.050;11.036;2022-11-02T02:42:50;12.77;;;3.40;;
5058;SDS011;2548;52.050;11.036;2022-11-02T02:45:25;19.45;;;4.10;;
5058;SDS011;2548;52.050;11.036;2022-11-02T02:47:59;8.35;;;2.75;;
5058;SDS011;2548;52.050;11.036;2022-11-02T02:50:31;7.75;;;3.60;;
5058;SDS011;2548;52.050;11.036;2022-11-02T02:53:05;5.97;;;2.35;;
5058;SDS011;2548;52.050;11.036;2022-11-02T02:55:36;8.88;;;2.28;;
5058;SDS011;2548;52.050;11.036;2022-11-02T02:58:09;6.20;;;2.10;;
5058;SDS011;2548;52.050;11.036;2022-11-02T03:00:43;12.38;;;2.90;;
5058;SDS011;2548;52.050;11.036;2022-11-02T03:03:14;7.20;;;2.90;;
5058;SDS011;2548;52.050;11.036;2022-11-02T03:05:52;11.20;;;4.45;;
5058;SDS011;2548;52.050;11.036;2022-11-02T03:08:26;23.52;;;6.47;;
5058;SDS011;2548;52.050;11.036;2022-11-02T03:10:56;24.45;;;7.53;;
5058;SDS011;2548;52.050;11.036;2022-11-02T03:13:32;24.92;;;10.07;;
5058;SDS011;2548;52.050;11.036;2022-11-02T03:16:10;17.90;;;5.53;;
5058;SDS011;2548;52.050;11.036;2022-11-02T03:18:46;9.57;;;3.28;;
5058;SDS011;2548;52.050;11.036;2022-11-02T03:21:26;18.13;;;5.68;;
5058;SDS011;2548;52.050;11.036;2022-11-02T03:23:57;33.15;;;10.15;;
5058;SDS011;2548;52.050;11.036;2022-11-02T03:26:31;20.90;;;5.32;;
5058;SDS011;2548;52.050;11.036;2022-11-02T03:29:07;10.20;;;4.32;;
5058;SDS011;2548;52.050;11.036;2022-11-02T03:31:42;7.47;;;2.78;;
5058;SDS011;2548;52.050;11.036;2022-11-02T03:34:16;7.25;;;3.05;;
5058;SDS011;2548;52.050;11.036;2022-11-02T03:36:53;10.88;;;3.50;;
5058;SDS011;2548;52.050;11.036;2022-11-02T03:39:27;20.13;;;3.03;;
5058;SDS011;2548;52.050;11.036;2022-11-02T03:42:00;4.32;;;2.08;;
5058;SDS011;2548;52.050;11.036;2022-11-02T03:44:30;12.55;;;2.03;;
5058;SDS011;2548;52.050;11.036;2022-11-02T03:47:04;11.30;;;2.67;;
5058;SDS011;2548;52.050;11.036;2022-11-02T03:49:36;12.05;;;2.20;;
5058;SDS011;2548;52.050;11.036;2022-11-02T03:52:09;6.18;;;2.50;;
5058;SDS011;2548;52.050;11.036;2022-11-02T03:54:42;29.48;;;8.88;;
5058;SDS011;2548;52.050;11.036;2022-11-02T03:57:16;38.08;;;15.02;;
5058;SDS011;2548;52.050;11.036;2022-11-02T03:59:47;33.80;;;10.18;;
5058;SDS011;2548;52.050;11.036;2022-11-02T04:02:16;22.27;;;7.20;;
5058;SDS011;2548;52.050;11.036;2022-11-02T04:04:48;15.98;;;4.80;;
5058;SDS011;2548;52.050;11.036;2022-11-02T04:07:18;22.35;;;4.35;;
5058;SDS011;2548;52.050;11.036;2022-11-02T04:09:51;10.70;;;4.18;;
5058;SDS011;2548;52.050;11.036;2022-11-02T04:12:19;6.55;;;2.60;;
5058;SDS011;2548;52.050;11.036;2022-11-02T04:15:04;5.80;;;2.30;;
5058;SDS011;2548;52.050;11.036;2022-11-02T04:17:34;15.68;;;3.40;;
5058;SDS011;2548;52.050;11.036;2022-11-02T04:20:19;8.13;;;2.22;;
5058;SDS011;2548;52.050;11.036;2022-11-02T04:22:46;24.10;;;8.20;;
5058;SDS011;2548;52.050;11.036;2022-11-02T04:25:32;8.50;;;2.58;;
5058;SDS011;2548;52.050;11.036;2022-11-02T04:28:12;7.60;;;2.55;;
5058;SDS011;2548;52.050;11.036;2022-11-02T04:30:45;8.48;;;2.25;;
5058;SDS011;2548;52.050;11.036;2022-11-02T04:33:14;6.85;;;2.00;;
5058;SDS011;2548;52.050;11.036;2022-11-02T04:36:19;6.07;;;2.78;;
5058;SDS011;2548;52.050;11.036;2022-11-02T04:38:51;7.78;;;2.22;;
5058;SDS011;2548;52.050;11.036;2022-11-02T04:41:22;7.22;;;2.20;;
5058;SDS011;2548;52.050;11.036;2022-11-02T04:44:24;5.88;;;2.20;;
5058;SDS011;2548;52.050;11.036;2022-11-02T04:47:01;18.58;;;2.65;;
5058;SDS011;2548;52.050;11.036;2022-11-02T04:49:33;11.15;;;2.00;;
5058;SDS011;2548;52.050;11.036;2022-11-02T04:52:01;8.40;;;1.98;;
5058;SDS011;2548;52.050;11.036;2022-11-02T04:54:32;14.90;;;2.40;;
5058;SDS011;2548;52.050;11.036;2022-11-02T04:57:02;7.03;;;2.35;;
5058;SDS011;2548;52.050;11.036;2022-11-02T04:59:30;20.30;;;2.90;;
5058;SDS011;2548;52.050;11.036;2022-11-02T05:01:58;13.18;;;2.10;;
5058;SDS011;2548;52.050;11.036;2022-11-02T05:04:25;18.55;;;2.50;;
5058;SDS011;2548;52.050;11.036;2022-11-02T05:06:55;5.53;;;1.58;;
5058;SDS011;2548;52.050;11.036;2022-11-02T05:09:23;8.40;;;2.15;;
5058;SDS011;2548;52.050;11.036;2022-11-02T05:11:51;13.18;;;2.40;;
5058;SDS011;2548;52.050;11.036;2022-11-02T05:14:18;13.02;;;2.30;;
5058;SDS011;2548;52.050;11.036;2022-11-02T05:16:46;14.10;;;3.90;;
5058;SDS011;2548;52.050;11.036;2022-11-02T05:19:13;12.02;;;2.85;;
5058;SDS011;2548;52.050;11.036;2022-11-02T05:21:42;9.35;;;1.98;;
5058;SDS011;2548;52.050;11.036;2022-11-02T05:24:11;9.65;;;2.22;;
5058;SDS011;2548;52.050;11.036;2022-11-02T05:26:39;11.75;;;1.85;;
5058;SDS011;2548;52.050;11.036;2022-11-02T05:29:07;4.07;;;2.50;;
5058;SDS011;2548;52.050;11.036;2022-11-02T05:31:36;12.68;;;3.15;;
5058;SDS011;2548;52.050;11.036;2022-11-02T05:34:03;7.32;;;2.08;;
5058;SDS011;2548;52.050;11.036;2022-11-02T05:36:30;8.70;;;1.98;;
5058;SDS011;2548;52.050;11.036;2022-11-02T05:38:58;15.13;;;2.28;;
5058;SDS011;2548;52.050;11.036;2022-11-02T05:41:27;14.40;;;2.50;;
5058;SDS011;2548;52.050;11.036;2022-11-02T05:43:57;13.07;;;3.50;;
5058;SDS011;2548;52.050;11.036;2022-11-02T05:46:27;13.27;;;2.55;;
5058;SDS011;2548;52.050;11.036;2022-11-02T05:48:54;11.50;;;2.45;;
5058;SDS011;2548;52.050;11.036;2022-11-02T05:51:21;11.80;;;1.92;;
5058;SDS011;2548;52.050;11.036;2022-11-02T05:53:49;8.52;;;2.45;;
5058;SDS011;2548;52.050;11.036;2022-11-02T05:56:16;6.35;;;1.52;;
5058;SDS011;2548;52.050;11.036;2022-11-02T05:58:45;5.85;;;1.92;;
5058;SDS011;2548;52.050;11.036;2022-11-02T06:01:12;7.07;;;2.30;;
5058;SDS011;2548;52.050;11.036;2022-11-02T06:03:39;8.98;;;2.17;;
5058;SDS011;2548;52.050;11.036;2022-11-02T06:06:09;8.88;;;2.63;;
5058;SDS011;2548;52.050;11.036;2022-11-02T06:08:37;6.18;;;1.90;;
5058;SDS011;2548;52.050;11.036;2022-11-02T06:11:06;11.30;;;2.47;;
5058;SDS011;2548;52.050;11.036;2022-11-02T06:13:34;16.58;;;2.35;;
5058;SDS011;2548;52.050;11.036;2022-11-02T06:16:04;14.50;;;2.00;;
5058;SDS011;2548;52.050;11.036;2022-11-02T06:18:34;7.97;;;2.33;;
5058;SDS011;2548;52.050;11.036;2022-11-02T06:21:01;10.48;;;2.58;;
5058;SDS011;2548;52.050;11.036;2022-11-02T06:23:29;9.73;;;2.45;;
5058;SDS011;2548;52.050;11.036;2022-11-02T06:25:57;9.18;;;2.53;;
5058;SDS011;2548;52.050;11.036;2022-11-02T06:28:26;10.40;;;2.30;;
5058;SDS011;2548;52.050;11.036;2022-11-02T06:30:54;5.35;;;3.08;;
5058;SDS011;2548;52.050;11.036;2022-11-02T06:33:23;11.63;;;2.15;;
5058;SDS011;2548;52.050;11.036;2022-11-02T06:35:51;5.32;;;2.25;;
5058;SDS011;2548;52.050;11.036;2022-11-02T06:38:20;8.18;;;2.33;;
5058;SDS011;2548;52.050;11.036;2022-11-02T06:40:54;7.57;;;2.28;;
5058;SDS011;2548;52.050;11.036;2022-11-02T06:43:21;9.90;;;2.50;;
5058;SDS011;2548;52.050;11.036;2022-11-02T06:45:49;8.45;;;2.40;;
5058;SDS011;2548;52.050;11.036;2022-11-02T06:48:19;3.03;;;1.98;;
5058;SDS011;2548;52.050;11.036;2022-11-02T06:50:48;10.60;;;2.15;;
5058;SDS011;2548;52.050;11.036;2022-11-02T06:53:15;6.55;;;2.00;;
5058;SDS011;2548;52.050;11.036;2022-11-02T06:55:42;4.65;;;2.10;;
5058;SDS011;2548;52.050;11.036;2022-11-02T06:58:10;12.13;;;2.67;;
5058;SDS011;2548;52.050;11.036;2022-11-02T07:00:37;7.47;;;2.63;;
5058;SDS011;2548;52.050;11.036;2022-11-02T07:03:05;7.28;;;2.50;;
5058;SDS011;2548;52.050;11.036;2022-11-02T07:05:35;7.50;;;2.20;;
5058;SDS011;2548;52.050;11.036;2022-11-02T07:08:04;8.63;;;1.95;;
5058;SDS011;2548;52.050;11.036;2022-11-02T07:10:32;11.52;;;2.88;;
5058;SDS011;2548;52.050;11.036;2022-11-02T07:13:00;10.68;;;2.88;;
5058;SDS011;2548;52.050;11.036;2022-11-02T07:15:28;7.85;;;2.53;;
5058;SDS011;2548;52.050;11.036;2022-11-02T07:17:56;11.90;;;2.45;;
5058;SDS011;2548;52.050;11.036;2022-11-02T07:20:23;7.05;;;2.13;;
5058;SDS011;2548;52.050;11.036;2022-11-02T07:22:51;6.95;;;2.80;;
5058;SDS011;2548;52.050;11.036;2022-11-02T07:25:20;8.23;;;2.85;;
5058;SDS011;2548;52.050;11.036;2022-11-02T07:27:48;21.67;;;3.30;;
5058;SDS011;2548;52.050;11.036;2022-11-02T07:30:16;10.82;;;2.80;;
5058;SDS011;2548;52.050;11.036;2022-11-02T07:32:44;7.35;;;2.65;;
5058;SDS011;2548;52.050;11.036;2022-11-02T07:35:13;15.48;;;2.40;;
5058;SDS011;2548;52.050;11.036;2022-11-02T07:37:42;5.95;;;2.65;;
5058;SDS011;2548;52.050;11.036;2022-11-02T07:40:10;6.63;;;2.60;;
5058;SDS011;2548;52.050;11.036;2022-11-02T07:42:43;10.15;;;2.28;;
5058;SDS011;2548;52.050;11.036;2022-11-02T07:45:11;6.82;;;1.92;;
5058;SDS011;2548;52.050;11.036;2022-11-02T07:47:42;6.57;;;2.70;;
5058;SDS011;2548;52.050;11.036;2022-11-02T07:50:10;7.70;;;1.98;;
5058;SDS011;2548;52.050;11.036;2022-11-02T07:52:44;13.32;;;2.35;;
5058;SDS011;2548;52.050;11.036;2022-11-02T07:55:12;8.70;;;3.10;;
5058;SDS011;2548;52.050;11.036;2022-11-02T07:57:40;13.25;;;4.65;;
5058;SDS011;2548;52.050;11.036;2022-11-02T08:00:10;17.33;;;7.20;;
5058;SDS011;2548;52.050;11.036;2022-11-02T08:02:38;17.77;;;7.10;;
5058;SDS011;2548;52.050;11.036;2022-11-02T08:05:05;10.57;;;6.25;;
5058;SDS011;2548;52.050;11.036;2022-11-02T08:07:33;15.20;;;5.55;;
5058;SDS011;2548;52.050;11.036;2022-11-02T08:10:00;11.68;;;6.22;;
5058;SDS011;2548;52.050;11.036;2022-11-02T08:12:28;21.33;;;11.48;;
5058;SDS011;2548;52.050;11.036;2022-11-02T08:14:55;10.63;;;8.25;;
5058;SDS011;2548;52.050;11.036;2022-11-02T08:17:24;11.90;;;5.00;;
5058;SDS011;2548;52.050;11.036;2022-11-02T08:19:51;19.50;;;6.10;;
5058;SDS011;2548;52.050;11.036;2022-11-02T08:22:19;11.07;;;2.70;;
5058;SDS011;2548;52.050;11.036;2022-11-02T08:24:46;15.80;;;2.95;;
5058;SDS011;2548;52.050;11.036;2022-11-02T08:27:13;7.97;;;2.80;;
5058;SDS011;2548;52.050;11.036;2022-11-02T08:29:41;9.65;;;3.55;;
5058;SDS011;2548;52.050;11.036;2022-11-02T08:32:08;11.27;;;3.33;;
5058;SDS011;2548;52.050;11.036;2022-11-02T08:34:37;11.27;;;3.05;;
5058;SDS011;2548;52.050;11.036;2022-11-02T08:37:05;14.70;;;3.58;;
5058;SDS011;2548;52.050;11.036;2022-11-02T08:39:33;5.70;;;3.05;;
5058;SDS011;2548;52.050;11.036;2022-11-02T08:42:00;8.75;;;2.58;;
5058;SDS011;2548;52.050;11.036;2022-11-02T08:44:28;8.43;;;2.15;;
5058;SDS011;2548;52.050;11.036;2022-11-02T08:46:55;4.85;;;2.53;;
5058;SDS011;2548;52.050;11.036;2022-11-02T08:49:23;9.13;;;2.53;;
5058;SDS011;2548;52.050;11.036;2022-11-02T08:51:51;9.48;;;2.65;;
5058;SDS011;2548;52.050;11.036;2022-11-02T08:54:19;13.25;;;3.00;;
5058;SDS011;2548;52.050;11.036;2022-11-02T08:56:46;12.32;;;4.03;;
5058;SDS011;2548;52.050;11.036;2022-11-02T08:59:13;7.50;;;2.38;;
5058;SDS011;2548;52.050;11.036;2022-11-02T09:01:41;8.50;;;2.25;;
5058;SDS011;2548;52.050;11.036;2022-11-02T09:04:08;8.00;;;2.42;;
5058;SDS011;2548;52.050;11.036;2022-11-02T09:06:35;11.45;;;2.88;;
5058;SDS011;2548;52.050;11.036;2022-11-02T09:09:04;12.65;;;2.15;;
5058;SDS011;2548;52.050;11.036;2022-11-02T09:11:31;11.27;;;2.13;;
5058;SDS011;2548;52.050;11.036;2022-11-02T09:13:59;12.38;;;2.35;;
5058;SDS011;2548;52.050;11.036;2022-11-02T09:16:26;7.20;;;2.15;;
5058;SDS011;2548;52.050;11.036;2022-11-02T09:18:53;6.97;;;2.58;;
5058;SDS011;2548;52.050;11.036;2022-11-02T09:21:21;10.13;;;3.03;;
5058;SDS011;2548;52.050;11.036;2022-11-02T09:23:48;7.18;;;2.53;;
5058;SDS011;2548;52.050;11.036;2022-11-02T09:26:16;7.03;;;2.92;;
5058;SDS011;2548;52.050;11.036;2022-11-02T09:28:44;4.85;;;1.90;;
5058;SDS011;2548;52.050;11.036;2022-11-02T09:31:11;11.00;;;2.88;;
5058;SDS011;2548;52.050;11.036;2022-11-02T09:33:38;10.60;;;2.70;;
5058;SDS011;2548;52.050;11.036;2022-11-02T09:36:06;9.98;;;3.10;;
5058;SDS011;2548;52.050;11.036;2022-11-02T09:38:34;2.45;;;2.03;;
5058;SDS011;2548;52.050;11.036;2022-11-02T09:41:04;8.27;;;2.70;;
5058;SDS011;2548;52.050;11.036;2022-11-02T09:43:42;4.50;;;1.85;;
5058;SDS011;2548;52.050;11.036;2022-11-02T09:46:18;4.10;;;1.80;;
5058;SDS011;2548;52.050;11.036;2022-11-02T09:48:50;11.88;;;2.30;;
5058;SDS011;2548;52.050;11.036;2022-11-02T09:51:20;14.00;;;2.03;;
5058;SDS011;2548;52.050;11.036;2022-11-02T09:53:52;4.40;;;1.70;;
5058;SDS011;2548;52.050;11.036;2022-11-02T09:56:26;5.95;;;2.70;;
5058;SDS011;2548;52.050;11.036;2022-11-02T09:58:58;12.02;;;2.38;;
5058;SDS011;2548;52.050;11.036;2022-11-02T10:01:31;10.23;;;2.03;;
5058;SDS011;2548;52.050;11.036;2022-11-02T10:04:10;3.85;;;1.60;;
5058;SDS011;2548;52.050;11.036;2022-11-02T10:06:59;6.53;;;2.40;;
5058;SDS011;2548;52.050;11.036;2022-11-02T10:09:32;10.98;;;2.35;;
5058;SDS011;2548;52.050;11.036;2022-11-02T10:12:08;7.90;;;2.00;;
5058;SDS011;2548;52.050;11.036;2022-11-02T10:14:41;6.38;;;2.13;;
5058;SDS011;2548;52.050;11.036;2022-11-02T10:17:16;9.10;;;2.10;;
5058;SDS011;2548;52.050;11.036;2022-11-02T10:19:48;4.40;;;2.47;;
5058;SDS011;2548;52.050;11.036;2022-11-02T10:22:19;12.90;;;2.83;;
5058;SDS011;2548;52.050;11.036;2022-11-02T10:24:52;7.63;;;2.20;;
5058;SDS011;2548;52.050;11.036;2022-11-02T10:27:24;8.80;;;2.00;;
5058;SDS011;2548;52.050;11.036;2022-11-02T10:29:56;5.32;;;1.63;;
5058;SDS011;2548;52.050;11.036;2022-11-02T10:32:27;12.38;;;2.50;;
5058;SDS011;2548;52.050;11.036;2022-11-02T10:34:57;14.50;;;2.00;;
5058;SDS011;2548;52.050;11.036;2022-11-02T10:37:32;8.23;;;2.35;;
5058;SDS011;2548;52.050;11.036;2022-11-02T10:40:13;11.68;;;2.20;;
5058;SDS011;2548;52.050;11.036;2022-11-02T10:42:51;6.00;;;2.78;;
5058;SDS011;2548;52.050;11.036;2022-11-02T10:45:38;4.60;;;1.70;;
5058;SDS011;2548;52.050;11.036;2022-11-02T10:48:16;6.90;;;2.03;;
5058;SDS011;2548;52.050;11.036;2022-11-02T10:50:55;6.25;;;2.30;;
5058;SDS011;2548;52.050;11.036;2022-11-02T10:53:33;5.85;;;1.80;;
5058;SDS011;2548;52.050;11.036;2022-11-02T10:56:02;5.30;;;1.73;;
5058;SDS011;2548;52.050;11.036;2022-11-02T10:58:35;7.93;;;1.90;;
5058;SDS011;2548;52.050;11.036;2022-11-02T11:01:08;7.32;;;2.08;;
5058;SDS011;2548;52.050;11.036;2022-11-02T11:03:51;6.03;;;2.40;;
5058;SDS011;2548;52.050;11.036;2022-11-02T11:06:20;22.08;;;2.25;;
5058;SDS011;2548;52.050;11.036;2022-11-02T11:08:49;11.27;;;2.28;;
5058;SDS011;2548;52.050;11.036;2022-11-02T11:11:19;7.03;;;2.60;;
5058;SDS011;2548;52.050;11.036;2022-11-02T11:13:55;3.33;;;1.42;;
5058;SDS011;2548;52.050;11.036;2022-11-02T11:16:33;13.15;;;2.45;;
5058;SDS011;2548;52.050;11.036;2022-11-02T11:19:06;2.75;;;1.52;;
5058;SDS011;2548;52.050;11.036;2022-11-02T11:21:45;12.45;;;2.33;;
5058;SDS011;2548;52.050;11.036;2022-11-02T11:24:21;7.70;;;2.35;;
5058;SDS011;2548;52.050;11.036;2022-11-02T11:27:04;3.35;;;1.80;;
5058;SDS011;2548;52.050;11.036;2022-11-02T11:29:45;3.67;;;2.08;;
5058;SDS011;2548;52.050;11.036;2022-11-02T11:32:17;6.60;;;2.13;;
5058;SDS011;2548;52.050;11.036;2022-11-02T11:34:49;6.10;;;1.83;;
5058;SDS011;2548;52.050;11.036;2022-11-02T11:37:21;3.40;;;1.65;;
5058;SDS011;2548;52.050;11.036;2022-11-02T11:39:50;6.90;;;2.25;;
5058;SDS011;2548;52.050;11.036;2022-11-02T11:42:21;4.38;;;1.95;;
5058;SDS011;2548;52.050;11.036;2022-11-02T11:44:54;8.27;;;1.83;;
5058;SDS011;2548;52.050;11.036;2022-11-02T11:47:25;5.88;;;2.05;;
5058;SDS011;2548;52.050;11.036;2022-11-02T11:49:55;6.78;;;2.20;;
5058;SDS011;2548;52.050;11.036;2022-11-02T11:52:27;7.97;;;2.28;;
5058;SDS011;2548;52.050;11.036;2022-11-02T11:54:56;4.05;;;1.67;;
5058;SDS011;2548;52.050;11.036;2022-11-02T11:57:25;6.80;;;1.73;;
5058;SDS011;2548;52.050;11.036;2022-11-02T11:59:56;9.98;;;1.67;;
5058;SDS011;2548;52.050;11.036;2022-11-02T12:02:28;12.75;;;2.80;;
5058;SDS011;2548;52.050;11.036;2022-11-02T12:04:57;5.32;;;1.77;;
5058;SDS011;2548;52.050;11.036;2022-11-02T12:07:33;7.30;;;1.92;;
5058;SDS011;2548;52.050;11.036;2022-11-02T12:10:26;8.68;;;2.25;;
5058;SDS011;2548;52.050;11.036;2022-11-02T12:13:12;3.13;;;1.60;;
5058;SDS011;2548;52.050;11.036;2022-11-02T12:15:51;6.25;;;1.45;;
5058;SDS011;2548;52.050;11.036;2022-11-02T12:18:36;8.05;;;1.45;;
5058;SDS011;2548;52.050;11.036;2022-11-02T12:21:24;3.83;;;1.65;;
5058;SDS011;2548;52.050;11.036;2022-11-02T12:24:07;15.07;;;2.45;;
5058;SDS011;2548;52.050;11.036;2022-11-02T12:26:52;2.78;;;1.50;;
5058;SDS011;2548;52.050;11.036;2022-11-02T12:35:22;3.05;;;1.60;;
5058;SDS011;2548;52.050;11.036;2022-11-02T12:38:00;9.65;;;1.30;;
5058;SDS011;2548;52.050;11.036;2022-11-02T12:40:42;5.13;;;2.10;;
5058;SDS011;2548;52.050;11.036;2022-11-02T12:43:20;3.05;;;1.63;;
5058;SDS011;2548;52.050;11.036;2022-11-02T12:45:58;2.53;;;1.40;;
5058;SDS011;2548;52.050;11.036;2022-11-02T12:48:31;2.53;;;1.35;;
5058;SDS011;2548;52.050;11.036;2022-11-02T12:51:06;3.83;;;1.30;;
5058;SDS011;2548;52.050;11.036;2022-11-02T12:53:42;3.38;;;1.58;;
5058;SDS011;2548;52.050;11.036;2022-11-02T12:56:14;6.88;;;1.88;;
5058;SDS011;2548;52.050;11.036;2022-11-02T12:58:46;7.22;;;1.88;;
5058;SDS011;2548;52.050;11.036;2022-11-02T13:01:16;6.45;;;2.28;;
5058;SDS011;2548;52.050;11.036;2022-11-02T13:03:50;10.25;;;1.90;;
5058;SDS011;2548;52.050;11.036;2022-11-02T13:06:25;2.45;;;1.40;;
5058;SDS011;2548;52.050;11.036;2022-11-02T13:08:58;3.67;;;1.90;;
5058;SDS011;2548;52.050;11.036;2022-11-02T13:11:30;6.28;;;1.60;;
5058;SDS011;2548;52.050;11.036;2022-11-02T13:14:03;9.48;;;3.00;;
5058;SDS011;2548;52.050;11.036;2022-11-02T13:16:38;4.65;;;1.50;;
5058;SDS011;2548;52.050;11.036;2022-11-02T13:19:11;2.78;;;1.20;;
5058;SDS011;2548;52.050;11.036;2022-11-02T13:21:44;9.50;;;1.77;;
5058;SDS011;2548;52.050;11.036;2022-11-02T13:24:16;5.47;;;2.38;;
5058;SDS011;2548;52.050;11.036;2022-11-02T13:26:46;7.65;;;2.20;;
5058;SDS011;2548;52.050;11.036;2022-11-02T13:29:16;9.15;;;2.83;;
5058;SDS011;2548;52.050;11.036;2022-11-02T13:31:49;3.85;;;1.95;;
5058;SDS011;2548;52.050;11.036;2022-11-02T13:34:27;3.28;;;2.00;;
5058;SDS011;2548;52.050;11.036;2022-11-02T13:36:59;3.70;;;2.33;;
5058;SDS011;2548;52.050;11.036;2022-11-02T13:39:33;8.25;;;3.70;;
5058;SDS011;2548;52.050;11.036;2022-11-02T13:45:22;8.65;;;5.13;;
5058;SDS011;2548;52.050;11.036;2022-11-02T13:51:05;7.20;;;2.45;;
5058;SDS011;2548;52.050;11.036;2022-11-02T13:53:39;12.00;;;3.40;;
5058;SDS011;2548;52.050;11.036;2022-11-02T13:56:19;4.05;;;1.98;;
5058;SDS011;2548;52.050;11.036;2022-11-02T13:58:52;8.07;;;1.98;;
5058;SDS011;2548;52.050;11.036;2022-11-02T14:01:22;5.55;;;2.03;;
5058;SDS011;2548;52.050;11.036;2022-11-02T14:03:51;4.78;;;1.83;;
5058;SDS011;2548;52.050;11.036;2022-11-02T14:06:21;4.38;;;2.28;;
5058;SDS011;2548;52.050;11.036;2022-11-02T14:08:51;5.90;;;2.22;;
5058;SDS011;2548;52.050;11.036;2022-11-02T14:17:08;6.53;;;1.95;;
5058;SDS011;2548;52.050;11.036;2022-11-02T14:19:53;5.65;;;2.30;;
5058;SDS011;2548;52.050;11.036;2022-11-02T14:22:25;5.82;;;2.10;;
5058;SDS011;2548;52.050;11.036;2022-11-02T14:25:06;10.23;;;2.10;;
5058;SDS011;2548;52.050;11.036;2022-11-02T14:27:43;11.20;;;2.17;;
5058;SDS011;2548;52.050;11.036;2022-11-02T14:36:19;4.57;;;1.67;;
5058;SDS011;2548;52.050;11.036;2022-11-02T14:39:05;3.55;;;1.55;;
5058;SDS011;2548;52.050;11.036;2022-11-02T14:44:37;2.55;;;1.70;;
5058;SDS011;2548;52.050;11.036;2022-11-02T14:47:17;7.07;;;2.08;;
5058;SDS011;2548;52.050;11.036;2022-11-02T14:49:46;13.43;;;2.55;;
5058;SDS011;2548;52.050;11.036;2022-11-02T14:52:20;7.20;;;1.80;;
5058;SDS011;2548;52.050;11.036;2022-11-02T14:54:51;6.22;;;2.10;;
5058;SDS011;2548;52.050;11.036;2022-11-02T14:57:27;2.45;;;1.88;;
5058;SDS011;2548;52.050;11.036;2022-11-02T14:59:56;4.20;;;1.95;;
5058;SDS011;2548;52.050;11.036;2022-11-02T15:02:28;5.63;;;1.98;;
5058;SDS011;2548;52.050;11.036;2022-11-02T15:04:58;6.30;;;1.77;;
5058;SDS011;2548;52.050;11.036;2022-11-02T15:07:30;4.88;;;1.90;;
5058;SDS011;2548;52.050;11.036;2022-11-02T15:10:03;6.15;;;1.60;;
5058;SDS011;2548;52.050;11.036;2022-11-02T15:12:35;4.85;;;1.38;;
5058;SDS011;2548;52.050;11.036;2022-11-02T15:23:56;9.77;;;1.88;;
5058;SDS011;2548;52.050;11.036;2022-11-02T15:26:39;5.22;;;1.88;;
5058;SDS011;2548;52.050;11.036;2022-11-02T15:29:14;8.98;;;2.05;;
5058;SDS011;2548;52.050;11.036;2022-11-02T15:31:51;3.92;;;2.30;;
5058;SDS011;2548;52.050;11.036;2022-11-02T15:34:22;9.38;;;1.50;;
5058;SDS011;2548;52.050;11.036;2022-11-02T15:36:55;6.88;;;1.40;;
5058;SDS011;2548;52.050;11.036;2022-11-02T15:39:25;2.88;;;1.65;;
5058;SDS011;2548;52.050;11.036;2022-11-02T15:41:54;8.75;;;2.30;;
5058;SDS011;2548;52.050;11.036;2022-11-02T15:44:43;5.55;;;1.70;;
5058;SDS011;2548;52.050;11.036;2022-11-02T15:47:34;3.13;;;1.58;;
5058;SDS011;2548;52.050;11.036;2022-11-02T15:50:17;7.40;;;1.73;;
5058;SDS011;2548;52.050;11.036;2022-11-02T15:53:00;4.82;;;1.80;;
5058;SDS011;2548;52.050;11.036;2022-11-02T15:55:41;4.93;;;1.60;;
5058;SDS011;2548;52.050;11.036;2022-11-02T15:58:19;7.75;;;2.97;;
5058;SDS011;2548;52.050;11.036;2022-11-02T16:01:05;7.95;;;4.28;;
5058;SDS011;2548;52.050;11.036;2022-11-02T16:03:42;5.28;;;2.25;;